Time;durP1;ratioP1;P1;durP2;ratioP2;P2;SDS_P1;SDS_P2;PMS_P1;PMS_P2;Temp;Humidity;BMP_temperature;BMP_pressure;BME280_temperature;BME280_humidity;BME280_pressure;Samples;Min_cycle;Max_cycle;Signal;HPM_P1;HPM_P2
2022/12/09 00:01:09;;;;;;;36.13;16.63;;;;;;;3.19;88.96;100238.47;5056193;28;20407;-68
2022/12/09 00:03:37;;;;;;;35.45;17.75;;;;;;;3.19;88.90;100235.00;5055861;28;20056;-68
2022/12/09 00:06:09;;;;;;;36.92;17.50;;;;;;;3.16;89.07;100233.44;5055355;28;20063;-68
2022/12/09 00:08:36;;;;;;;32.83;16.85;;;;;;;3.15;89.10;100230.97;5056106;28;20049;-68
2022/12/09 00:11:04;;;;;;;34.90;17.23;;;;;;;3.10;88.88;100231.31;5055303;28;20380;-68
2022/12/09 00:13:31;;;;;;;34.63;17.15;;;;;;;3.06;89.32;100222.03;5055853;28;20033;-68
2022/12/09 00:15:58;;;;;;;31.13;16.17;;;;;;;3.07;89.17;100227.16;5055539;28;20430;-68
2022/12/09 00:18:25;;;;;;;31.17;16.70;;;;;;;3.08;89.38;100227.97;5056029;28;20179;-67
2022/12/09 00:20:52;;;;;;;33.67;16.55;;;;;;;3.03;89.41;100225.69;5055374;28;20490;-67
2022/12/09 00:23:19;;;;;;;35.92;17.58;;;;;;;3.03;89.57;100223.06;5053851;28;20094;-68
2022/12/09 00:25:45;;;;;;;40.85;17.35;;;;;;;3.06;89.76;100220.22;5055668;28;20049;-68
2022/12/09 00:28:12;;;;;;;37.10;17.48;;;;;;;3.05;90.06;100217.72;5055359;28;20045;-68
2022/12/09 00:30:39;;;;;;;35.05;17.42;;;;;;;3.05;89.39;100226.41;5055704;28;20527;-67
2022/12/09 00:33:06;;;;;;;34.53;16.67;;;;;;;3.05;89.53;100230.81;5055418;28;20045;-67
2022/12/09 00:35:33;;;;;;;36.78;17.75;;;;;;;3.07;89.46;100226.28;5055800;28;20053;-68
2022/12/09 00:37:59;;;;;;;38.22;17.00;;;;;;;3.08;89.53;100227.97;5055351;28;20174;-67
2022/12/09 00:40:26;;;;;;;37.10;17.13;;;;;;;3.08;89.09;100225.34;5055430;28;20067;-68
2022/12/09 00:42:53;;;;;;;33.67;17.27;;;;;;;3.06;88.88;100228.09;5055410;28;20045;-68
2022/12/09 00:45:19;;;;;;;37.13;18.17;;;;;;;3.07;88.47;100221.91;5054310;28;20053;-68
2022/12/09 00:47:46;;;;;;;36.53;16.75;;;;;;;3.11;87.88;100227.75;5055530;28;20056;-68
2022/12/09 00:50:13;;;;;;;37.20;16.92;;;;;;;3.08;87.75;100218.31;5054921;28;20057;-68
2022/12/09 00:52:40;;;;;;;34.63;17.75;;;;;;;3.09;87.88;100229.63;5055282;28;20052;-67
2022/12/09 00:55:07;;;;;;;38.47;17.05;;;;;;;3.09;88.16;100229.63;5054869;28;20048;-67
2022/12/09 00:57:34;;;;;;;32.20;17.10;;;;;;;3.10;88.32;100225.25;5054899;28;20406;-68
2022/12/09 01:00:00;;;;;;;34.83;17.95;;;;;;;3.10;88.59;100217.38;5054976;28;20098;-68
2022/12/09 01:02:28;;;;;;;36.63;17.48;;;;;;;3.09;88.69;100216.53;5054891;28;20033;-68
2022/12/09 01:04:55;;;;;;;36.40;17.48;;;;;;;3.17;88.16;100219.41;5054760;28;20087;-68
2022/12/09 01:07:22;;;;;;;34.15;17.02;;;;;;;3.18;87.90;100220.22;5054258;28;20048;-68
2022/12/09 01:09:48;;;;;;;33.60;17.90;;;;;;;3.19;88.18;100222.72;5054770;28;20383;-68
2022/12/09 01:12:15;;;;;;;37.72;17.45;;;;;;;3.19;88.48;100221.91;5054743;28;20045;-68
2022/12/09 01:14:42;;;;;;;39.88;17.45;;;;;;;3.17;88.83;100224.66;5054903;28;20513;-68
2022/12/09 01:17:08;;;;;;;38.63;17.65;;;;;;;3.17;88.13;100226.44;5054919;28;20056;-68
2022/12/09 01:19:36;;;;;;;35.22;17.45;;;;;;;3.15;88.13;100226.56;5054436;28;20041;-68
2022/12/09 01:22:03;;;;;;;35.05;17.75;;;;;;;3.19;86.94;100229.78;5054731;28;20037;-68
2022/12/09 01:24:29;;;;;;;33.35;17.85;;;;;;;3.21;87.08;100231.31;5054298;28;20055;-68
2022/12/09 01:26:56;;;;;;;33.55;16.85;;;;;;;3.28;87.09;100230.84;5054761;28;20098;-68
2022/12/09 01:29:23;;;;;;;37.35;17.58;;;;;;;3.22;86.79;100234.75;5053824;28;20047;-68
2022/12/09 01:31:50;;;;;;;36.60;18.05;;;;;;;3.28;87.48;100230.84;5054458;28;20082;-68
2022/12/09 01:34:17;;;;;;;34.95;16.77;;;;;;;3.26;87.87;100233.59;5053553;28;20040;-68
2022/12/09 01:36:43;;;;;;;41.15;18.10;;;;;;;3.23;87.21;100239.06;5054530;28;20071;-68
2022/12/09 01:39:11;;;;;;;36.95;16.52;;;;;;;3.28;87.37;100236.91;5053323;28;20079;-68
2022/12/09 01:41:38;;;;;;;33.80;16.63;;;;;;;3.31;87.38;100243.69;5053927;28;20421;-68
2022/12/09 01:44:17;;;;;;;31.90;16.35;;;;;;;3.33;87.52;100245.28;5054368;28;20102;-68
2022/12/09 01:46:45;;;;;;;38.95;16.80;;;;;;;3.32;87.69;100238.34;5054314;28;20049;-68
2022/12/09 01:49:19;;;;;;;32.33;16.23;;;;;;;3.33;87.63;100240.03;5054021;28;20052;-68
2022/12/09 01:51:53;;;;;;;33.58;16.35;;;;;;;3.24;88.20;100236.31;5053834;28;20045;-68
2022/12/09 01:54:20;;;;;;;34.53;15.45;;;;;;;3.32;87.56;100234.91;5054075;28;20111;-68
2022/12/09 01:56:47;;;;;;;33.08;16.27;;;;;;;3.28;86.70;100233.47;5054302;28;20044;-68
2022/12/09 01:59:15;;;;;;;33.33;15.70;;;;;;;3.24;87.45;100231.09;5053594;28;20044;-67
2022/12/09 02:01:48;;;;;;;37.42;17.40;;;;;;;3.25;86.98;100224.88;5054026;28;20075;-68
2022/12/09 02:04:15;;;;;;;32.10;17.02;;;;;;;3.23;85.92;100223.34;5053875;28;20050;-68
2022/12/09 02:06:42;;;;;;;33.25;16.80;;;;;;;3.20;86.73;100221.78;5053188;28;20045;-68
2022/12/09 02:09:10;;;;;;;29.90;15.60;;;;;;;3.23;87.26;100218.91;5054132;28;20045;-68
2022/12/09 02:11:56;;;;;;;35.08;15.32;;;;;;;3.21;87.21;100226.06;5053384;28;20045;-68
2022/12/09 02:14:30;;;;;;;29.55;15.38;;;;;;;3.16;87.52;100220.34;5053509;28;20044;-68
2022/12/09 02:17:22;;;;;;;31.45;15.50;;;;;;;3.18;86.98;100217.59;5053405;28;20471;-68
2022/12/09 02:20:15;;;;;;;26.95;15.00;;;;;;;3.21;87.01;100214.75;5053610;28;20065;-68
2022/12/09 02:22:46;;;;;;;28.58;15.15;;;;;;;3.26;86.67;100210.81;5053353;28;20037;-68
2022/12/09 02:25:29;;;;;;;30.70;15.23;;;;;;;3.19;86.53;100209.63;5053514;28;20487;-68
2022/12/09 02:28:17;;;;;;;32.40;15.10;;;;;;;3.23;86.59;100203.19;5053078;28;20561;-68
2022/12/09 02:30:54;;;;;;;30.45;14.32;;;;;;;3.33;85.88;100210.31;5053450;28;20043;-68
2022/12/09 02:33:47;;;;;;;31.15;14.60;;;;;;;3.10;85.29;100210.34;5051881;28;20048;-68
2022/12/09 02:36:17;;;;;;;32.25;15.13;;;;;;;3.11;86.72;100201.53;5053392;28;20049;-67
2022/12/09 02:38:47;;;;;;;29.17;14.68;;;;;;;3.11;86.27;100206.78;5053394;28;20068;-68
2022/12/09 02:41:20;;;;;;;38.15;15.13;;;;;;;3.01;87.08;100198.78;5053247;28;20120;-68
2022/12/09 02:43:53;;;;;;;31.80;14.55;;;;;;;2.97;87.57;100199.16;5053172;28;20513;-67
2022/12/09 02:46:26;;;;;;;30.98;14.75;;;;;;;3.02;87.33;100200.47;5053253;28;20394;-68
2022/12/09 02:48:57;;;;;;;32.95;16.42;;;;;;;3.04;87.53;100200.34;5052451;28;20043;-68
2022/12/09 02:51:28;;;;;;;31.42;15.93;;;;;;;3.11;87.79;100206.78;5053237;28;20041;-68
2022/12/09 02:54:02;;;;;;;35.70;16.08;;;;;;;3.03;88.20;100198.66;5053156;28;20041;-68
2022/12/09 02:56:33;;;;;;;39.50;16.17;;;;;;;3.10;87.65;100196.41;5053109;28;20052;-68
2022/12/09 02:59:00;;;;;;;32.42;15.63;;;;;;;2.96;87.03;100192.22;5053225;28;20049;-68
2022/12/09 03:01:38;;;;;;;34.22;15.57;;;;;;;2.94;88.08;100191.53;5053020;28;20041;-68
2022/12/09 03:04:07;;;;;;;38.05;16.08;;;;;;;2.97;87.49;100192.13;5051792;28;20037;-68
2022/12/09 03:06:41;;;;;;;31.77;16.27;;;;;;;2.98;86.99;100193.78;5052562;28;20505;-68
2022/12/09 03:09:10;;;;;;;30.95;15.82;;;;;;;3.04;86.71;100192.50;5052877;28;20045;-68
2022/12/09 03:11:38;;;;;;;33.80;16.40;;;;;;;3.02;87.34;100189.97;5051642;28;20087;-68
2022/12/09 03:14:18;;;;;;;31.88;15.85;;;;;;;3.05;85.62;100186.28;5053105;28;20106;-68
2022/12/09 03:16:59;;;;;;;27.35;15.13;;;;;;;2.96;85.03;100187.81;5053097;28;20187;-68
2022/12/09 03:19:32;;;;;;;37.15;15.48;;;;;;;2.77;85.37;100184.97;5052967;28;20049;-68
2022/12/09 03:22:04;;;;;;;30.92;16.08;;;;;;;2.85;85.65;100190.44;5053190;28;20048;-68
2022/12/09 03:24:37;;;;;;;29.45;14.63;;;;;;;2.66;85.52;100188.41;5052728;28;20516;-68
2022/12/09 03:27:08;;;;;;;38.00;16.67;;;;;;;2.64;85.61;100180.66;5053047;28;20056;-68
2022/12/09 03:29:40;;;;;;;28.38;15.20;;;;;;;2.64;87.05;100183.28;5052324;28;20556;-68
2022/12/09 03:32:10;;;;;;;28.90;14.02;;;;;;;2.72;86.04;100180.06;5053156;28;20122;-68
2022/12/09 03:34:41;;;;;;;31.23;14.98;;;;;;;2.80;86.49;100176.84;5052456;28;20045;-68
2022/12/09 03:37:10;;;;;;;35.10;15.90;;;;;;;2.77;86.66;100177.09;5053171;28;20045;-68
2022/12/09 03:39:39;;;;;;;36.45;16.90;;;;;;;2.80;86.81;100176.84;5052716;28;20049;-68
2022/12/09 03:42:17;;;;;;;30.50;14.45;;;;;;;2.90;86.36;100177.81;5052655;28;20053;-68
2022/12/09 03:44:52;;;;;;;28.35;15.23;;;;;;;2.92;85.73;100177.72;5052510;28;20418;-68
2022/12/09 03:47:20;;;;;;;29.27;15.10;;;;;;;2.93;86.37;100172.34;5051308;28;20120;-68
2022/12/09 03:49:46;;;;;;;32.88;15.65;;;;;;;2.98;85.45;100170.19;5052330;28;20135;-68
2022/12/09 03:52:21;;;;;;;33.42;15.35;;;;;;;2.97;85.26;100180.81;5052565;28;20049;-68
2022/12/09 03:54:54;;;;;;;29.17;15.30;;;;;;;3.01;85.57;100174.38;5052804;28;20052;-68
2022/12/09 03:57:22;;;;;;;31.15;14.75;;;;;;;3.04;85.93;100172.34;5053361;28;20049;-68
2022/12/09 03:59:54;;;;;;;31.42;15.40;;;;;;;3.04;85.87;100171.53;5056474;28;20048;-68
2022/12/09 04:02:21;;;;;;;32.35;15.15;;;;;;;3.05;85.75;100170.56;5056337;28;20502;-68
2022/12/09 04:04:49;;;;;;;30.10;14.93;;;;;;;3.12;86.07;100163.88;5055719;28;20490;-68
2022/12/09 04:07:16;;;;;;;29.08;14.85;;;;;;;3.14;86.09;100169.00;5055250;28;20115;-68
2022/12/09 04:09:43;;;;;;;30.98;15.15;;;;;;;3.21;86.09;100165.78;5055972;28;20048;-68
2022/12/09 04:12:11;;;;;;;33.67;15.55;;;;;;;3.14;86.20;100169.84;5054754;28;20555;-68
2022/12/09 04:14:38;;;;;;;29.88;15.82;;;;;;;3.07;85.76;100164.25;5055928;28;20083;-68
2022/12/09 04:17:05;;;;;;;34.30;15.65;;;;;;;3.03;85.64;100169.84;5054664;28;20091;-68
2022/12/09 04:19:32;;;;;;;29.95;16.10;;;;;;;3.07;85.79;100166.03;5055830;28;20033;-68
2022/12/09 04:21:59;;;;;;;28.25;14.88;;;;;;;3.04;86.96;100156.63;5055784;28;20045;-68
2022/12/09 04:24:26;;;;;;;30.55;14.10;;;;;;;3.03;88.00;100156.75;5055905;28;20132;-68
2022/12/09 04:26:53;;;;;;;27.88;14.18;;;;;;;3.08;88.06;100154.59;5055512;28;20132;-68
2022/12/09 04:29:20;;;;;;;28.77;14.15;;;;;;;2.97;88.49;100152.00;5055422;28;20091;-68
2022/12/09 04:31:46;;;;;;;32.53;15.05;;;;;;;2.87;89.15;100150.09;5055278;28;20077;-68
2022/12/09 04:34:13;;;;;;;31.50;15.80;;;;;;;2.87;89.05;100149.22;5055599;28;20120;-68
2022/12/09 04:36:40;;;;;;;33.10;15.70;;;;;;;2.80;89.38;100154.13;5054405;28;20041;-68
2022/12/09 04:39:07;;;;;;;31.40;15.82;;;;;;;2.75;90.24;100153.63;5055042;28;20409;-68
2022/12/09 04:41:35;;;;;;;32.40;15.30;;;;;;;2.68;90.08;100150.66;5055055;28;20048;-68
2022/12/09 04:44:02;;;;;;;32.63;16.00;;;;;;;2.72;90.28;100140.78;5055036;28;20068;-68
2022/12/09 04:46:29;;;;;;;31.83;16.17;;;;;;;2.60;91.19;100144.31;5055693;28;20129;-68
2022/12/09 04:48:55;;;;;;;32.33;15.13;;;;;;;2.57;91.20;100142.78;5054926;28;20436;-68
2022/12/09 04:51:23;;;;;;;35.63;16.50;;;;;;;2.52;91.74;100144.09;5055358;28;20056;-68
2022/12/09 04:53:50;;;;;;;32.45;15.63;;;;;;;2.47;91.89;100153.13;5055089;28;20065;-68
2022/12/09 04:56:19;;;;;;;29.13;15.20;;;;;;;2.54;92.01;100153.47;5055188;28;20048;-68
2022/12/09 04:58:48;;;;;;;31.63;15.43;;;;;;;2.54;92.23;100145.63;5055078;28;20059;-68
2022/12/09 05:01:17;;;;;;;28.52;15.48;;;;;;;2.58;91.92;100147.06;5054865;28;20048;-68
2022/12/09 05:03:49;;;;;;;28.80;14.77;;;;;;;2.58;92.08;100148.84;5054993;28;20033;-67
2022/12/09 05:06:17;;;;;;;;;;;;;;;2.53;92.42;100140.50;5054670;28;20045;-67
2022/12/09 05:08:44;;;;;;;31.33;14.55;;;;;;;2.50;92.48;100138.97;5054847;28;19921;-67
2022/12/09 05:11:13;;;;;;;31.33;15.90;;;;;;;2.47;92.21;100137.44;5054460;28;20045;-67
2022/12/09 05:13:40;;;;;;;29.55;15.20;;;;;;;2.50;92.29;100142.41;5053630;28;20410;-67
2022/12/09 05:16:10;;;;;;;31.85;15.20;;;;;;;2.57;92.12;100145.41;5054998;28;20045;-67
2022/12/09 05:18:41;;;;;;;35.10;15.40;;;;;;;2.56;92.15;100148.97;5054750;28;20122;-67
2022/12/09 05:21:11;;;;;;;33.20;17.08;;;;;;;2.63;92.23;100144.09;5054780;28;20483;-67
2022/12/09 05:23:38;;;;;;;32.35;15.43;;;;;;;2.55;92.66;100141.22;5054679;28;20049;-67
2022/12/09 05:26:08;;;;;;;34.17;15.30;;;;;;;2.47;92.83;100133.97;5054134;28;20111;-67
2022/12/09 05:28:36;;;;;;;30.17;15.18;;;;;;;2.41;92.96;100142.28;5054303;28;20049;-67
2022/12/09 05:31:06;;;;;;;35.00;15.98;;;;;;;2.39;92.99;100142.41;5054429;28;20055;-67
2022/12/09 05:33:33;;;;;;;33.30;16.30;;;;;;;2.35;93.20;100148.81;5054583;28;20132;-68
2022/12/09 05:36:00;;;;;;;28.33;15.18;;;;;;;2.27;93.12;100140.69;5054431;28;20517;-68
2022/12/09 05:38:29;;;;;;;35.08;15.77;;;;;;;2.21;93.98;100136.75;5054737;28;20550;-68
2022/12/09 05:40:59;;;;;;;34.65;15.73;;;;;;;2.30;93.86;100122.97;5053850;28;20170;-67
2022/12/09 05:43:26;;;;;;;36.55;15.98;;;;;;;2.35;93.48;100132.25;5054400;28;20061;-67
2022/12/09 05:45:53;;;;;;;33.47;15.73;;;;;;;2.39;93.69;100128.47;5053981;28;20057;-67
2022/12/09 05:48:19;;;;;;;31.30;15.73;;;;;;;2.38;93.32;100126.81;5054313;28;20076;-67
2022/12/09 05:50:56;;;;;;;33.58;16.05;;;;;;;2.39;93.11;100121.44;5053656;28;20115;-68
2022/12/09 05:53:23;;;;;;;34.33;16.17;;;;;;;2.43;93.01;100128.13;5054276;28;20135;-67
2022/12/09 05:55:51;;;;;;;33.08;15.68;;;;;;;2.42;93.13;100128.22;5053969;28;20080;-67
2022/12/09 05:58:18;;;;;;;28.50;14.65;;;;;;;2.42;93.68;100125.59;5053606;28;20053;-67
2022/12/09 06:00:46;;;;;;;28.48;15.05;;;;;;;2.42;93.42;100118.63;5052871;28;20049;-67
2022/12/09 06:03:12;;;;;;;34.13;15.68;;;;;;;2.48;93.31;100125.16;5053487;28;20040;-67
2022/12/09 06:05:40;;;;;;;32.55;16.40;;;;;;;2.43;92.98;100122.06;5053341;28;20041;-67
2022/12/09 06:08:07;;;;;;;31.55;15.60;;;;;;;2.21;93.55;100123.69;5053354;28;20148;-67
2022/12/09 06:10:37;;;;;;;28.95;14.50;;;;;;;2.25;93.61;100122.47;5053732;28;20166;-69
2022/12/09 06:13:05;;;;;;;33.92;16.13;;;;;;;2.17;93.70;100122.25;5053360;28;20048;-67
2022/12/09 06:15:32;;;;;;;34.55;15.85;;;;;;;2.18;93.94;100115.22;5053549;28;20056;-67
2022/12/09 06:18:00;;;;;;;31.48;15.18;;;;;;;2.11;93.86;100118.31;5053726;28;20102;-67
2022/12/09 06:20:26;;;;;;;30.65;15.60;;;;;;;2.09;94.28;100109.75;5053139;28;20045;-68
2022/12/09 06:22:53;;;;;;;32.75;16.00;;;;;;;2.17;93.65;100111.78;5053663;28;20517;-68
2022/12/09 06:25:20;;;;;;;31.63;16.08;;;;;;;2.26;93.96;100118.94;5052985;28;20384;-68
2022/12/09 06:27:47;;;;;;;30.50;15.82;;;;;;;2.30;93.63;100114.31;5051948;28;20072;-68
2022/12/09 06:30:15;;;;;;;30.73;15.95;;;;;;;2.21;93.55;100122.84;5053328;28;20056;-68
2022/12/09 06:32:42;;;;;;;32.40;15.65;;;;;;;2.15;94.42;100113.69;5052988;28;20090;-68
2022/12/09 06:35:09;;;;;;;30.10;15.85;;;;;;;2.20;94.30;100108.09;5053080;28;20045;-68
2022/12/09 06:37:36;;;;;;;29.05;15.68;;;;;;;2.13;93.80;100105.13;5053192;28;20601;-68
2022/12/09 06:40:04;;;;;;;32.63;15.57;;;;;;;2.22;93.44;100101.81;5053145;28;20556;-68
2022/12/09 06:42:31;;;;;;;39.25;17.23;;;;;;;2.15;93.45;100102.34;5052605;28;20123;-67
2022/12/09 06:44:58;;;;;;;34.97;16.02;;;;;;;2.17;93.81;100096.06;5053049;28;20072;-68
2022/12/09 06:47:25;;;;;;;30.85;15.48;;;;;;;2.17;93.85;100097.88;5052934;28;20040;-68
2022/12/09 06:49:51;;;;;;;34.95;14.90;;;;;;;2.18;93.51;100107.38;5052083;28;20049;-67
2022/12/09 06:52:18;;;;;;;33.63;15.02;;;;;;;2.14;93.14;100104.16;5052960;28;20064;-67
2022/12/09 06:54:48;;;;;;;31.55;15.75;;;;;;;2.08;93.02;100110.69;5052300;28;20049;-68
2022/12/09 06:57:15;;;;;;;37.25;15.75;;;;;;;2.13;93.00;100114.72;5052811;28;20049;-68
2022/12/09 06:59:42;;;;;;;27.85;15.20;;;;;;;2.13;92.52;100107.72;5052466;28;20055;-68
2022/12/09 07:02:10;;;;;;;29.65;15.35;;;;;;;2.04;92.78;100113.66;5053080;28;20041;-68
2022/12/09 07:04:37;;;;;;;31.63;15.80;;;;;;;2.00;92.98;100115.66;5052845;28;20052;-68
2022/12/09 07:07:04;;;;;;;34.90;17.05;;;;;;;1.98;92.96;100116.72;5048421;28;20383;-68
2022/12/09 07:09:31;;;;;;;34.47;16.70;;;;;;;1.90;92.98;100115.50;5052702;28;20491;-68
2022/12/09 07:11:58;;;;;;;36.15;16.27;;;;;;;1.75;93.39;100121.88;5052154;28;20045;-68
2022/12/09 07:14:25;;;;;;;31.90;16.10;;;;;;;1.77;93.15;100121.75;5052918;28;20041;-68
2022/12/09 07:16:52;;;;;;;39.50;16.38;;;;;;;1.69;93.40;100128.38;5052787;28;20357;-68
2022/12/09 07:19:21;;;;;;;33.80;15.65;;;;;;;1.65;93.40;100120.84;5052937;28;20045;-68
2022/12/09 07:21:49;;;;;;;28.95;15.70;;;;;;;1.57;94.13;100126.66;5052850;28;20071;-68
2022/12/09 07:24:17;;;;;;;34.08;17.02;;;;;;;1.62;94.24;100121.06;5052774;28;20041;-67
2022/12/09 07:26:45;;;;;;;34.33;17.08;;;;;;;1.60;93.78;100129.06;5052619;28;20052;-67
2022/12/09 07:29:12;;;;;;;31.23;15.73;;;;;;;1.53;93.52;100128.66;5052347;28;20045;-67
2022/12/09 07:31:39;;;;;;;31.67;15.98;;;;;;;1.50;94.10;100134.09;5052389;28;20052;-68
2022/12/09 07:34:06;;;;;;;39.35;17.45;;;;;;;1.56;94.50;100124.97;5056171;28;20376;-67
2022/12/09 07:36:34;;;;;;;32.25;17.05;;;;;;;1.57;94.41;100131.06;5056503;28;20502;-67
2022/12/09 07:39:05;;;;;;;36.88;16.17;;;;;;;1.54;94.38;100137.31;5056443;28;20136;-67
2022/12/09 07:41:32;;;;;;;29.98;15.65;;;;;;;1.55;93.98;100139.00;5056192;28;20045;-67
2022/12/09 07:44:00;;;;;;;32.72;17.02;;;;;;;1.48;93.63;100138.59;5056231;28;20052;-67
2022/12/09 07:46:27;;;;;;;33.58;16.55;;;;;;;1.47;94.25;100141.31;5056017;28;20401;-67
2022/12/09 07:48:55;;;;;;;35.83;18.05;;;;;;;1.37;95.49;100142.94;5055846;28;20041;-67
2022/12/09 07:51:23;;;;;;;38.28;17.65;;;;;;;1.43;95.62;100145.09;5056062;28;20399;-67
2022/12/09 07:53:50;;;;;;;31.75;17.27;;;;;;;1.44;95.84;100152.03;5056128;28;20068;-67
2022/12/09 07:56:17;;;;;;;35.63;16.88;;;;;;;1.43;95.88;100148.53;5055975;28;20128;-67
2022/12/09 07:58:46;;;;;;;37.67;17.45;;;;;;;1.46;95.45;100145.72;5055944;28;20041;-67
2022/12/09 08:01:17;;;;;;;31.58;15.98;;;;;;;1.55;95.29;100154.69;5056095;28;20118;-67
2022/12/09 08:03:44;;;;;;;37.90;17.88;;;;;;;1.53;95.54;100161.81;5055855;28;20052;-67
2022/12/09 08:06:13;;;;;;;36.83;17.52;;;;;;;1.57;96.35;100158.03;5055677;28;20052;-67
2022/12/09 08:08:41;;;;;;;37.63;18.50;;;;;;;1.59;95.77;100161.38;5049176;28;21354;-67
2022/12/09 08:11:17;;;;;;;39.80;17.30;;;;;;;1.68;95.58;100168.53;5049940;28;20068;-67
2022/12/09 08:13:44;;;;;;;41.40;18.88;;;;;;;1.77;95.97;100167.03;5038669;28;20040;-67
2022/12/09 08:16:13;;;;;;;34.90;17.33;;;;;;;1.89;94.58;100174.00;5038184;28;20058;-64
2022/12/09 08:18:41;;;;;;;37.50;18.75;;;;;;;1.86;95.14;100169.00;5044531;28;20052;-64
2022/12/09 08:21:10;;;;;;;34.28;18.58;;;;;;;1.76;95.38;100169.78;5057882;28;20448;-64
2022/12/09 08:23:38;;;;;;;39.55;17.73;;;;;;;1.92;95.56;100170.31;5050313;28;20098;-64
2022/12/09 08:26:05;;;;;;;39.28;18.08;;;;;;;1.76;97.62;100161.91;5045780;28;20061;-63
2022/12/09 08:28:33;;;;;;;204.38;62.85;;;;;;;2.01;97.12;100167.03;5021471;28;20047;-64
2022/12/09 08:31:06;;;;;;;36.72;18.85;;;;;;;2.06;96.15;100169.31;5042128;28;20434;-67
2022/12/09 08:33:33;;;;;;;36.47;17.98;;;;;;;1.95;96.35;100153.56;5041970;28;20095;-66
2022/12/09 08:36:01;;;;;;;43.72;18.90;;;;;;;2.21;95.68;100162.94;5046902;28;20052;-68
2022/12/09 08:38:30;;;;;;;39.75;18.15;;;;;;;2.37;95.64;100160.00;5034892;28;20065;-67
2022/12/09 08:40:57;;;;;;;35.75;18.67;;;;;;;2.48;94.98;100154.78;5048572;28;20111;-67
2022/12/09 08:43:24;;;;;;;38.75;18.63;;;;;;;2.55;94.79;100154.31;5043932;28;20147;-67
2022/12/09 08:45:51;;;;;;;40.10;18.45;;;;;;;2.59;94.83;100158.38;5050618;28;20076;-67
2022/12/09 08:48:18;;;;;;;37.25;18.48;;;;;;;2.65;94.07;100157.91;5037241;28;20053;-67
2022/12/09 08:50:45;;;;;;;39.63;17.77;;;;;;;2.63;93.67;100163.25;5045654;28;20078;-67
2022/12/09 08:53:12;;;;;;;43.28;19.00;;;;;;;2.71;93.27;100159.22;5045008;28;20570;-67
2022/12/09 08:55:41;;;;;;;40.15;18.77;;;;;;;2.73;93.01;100160.78;5047659;28;20045;-67
2022/12/09 08:58:07;;;;;;;35.95;19.20;;;;;;;2.77;93.09;100164.84;5034862;28;20045;-67
2022/12/09 09:00:35;;;;;;;46.20;18.65;;;;;;;2.81;92.62;100158.41;5041109;28;20048;-67
2022/12/09 09:03:02;;;;;;;38.15;18.48;;;;;;;3.01;92.10;100161.28;5045667;28;20068;-67
2022/12/09 09:05:29;;;;;;;37.65;18.73;;;;;;;3.10;91.54;100162.34;5040779;28;20049;-67
2022/12/09 09:07:56;;;;;;;37.63;19.00;;;;;;;3.19;91.16;100162.44;5046520;28;20041;-67
2022/12/09 09:10:23;;;;;;;38.90;18.98;;;;;;;2.88;90.63;100164.84;5041382;28;20132;-67
2022/12/09 09:12:50;;;;;;;42.13;19.33;;;;;;;2.86;91.49;100165.91;5048572;28;20052;-67
2022/12/09 09:15:17;;;;;;;41.20;18.75;;;;;;;2.90;91.70;100161.28;5025434;28;20048;-67
2022/12/09 09:17:44;;;;;;;34.58;18.95;;;;;;;2.96;90.63;100169.47;5052992;28;20513;-68
2022/12/09 09:20:13;;;;;;;35.42;18.40;;;;;;;3.00;91.09;100168.31;5046975;28;21798;-67
2022/12/09 09:22:40;;;;;;;42.67;20.38;;;;;;;3.12;91.12;100168.28;5043715;28;20081;-67
2022/12/09 09:25:08;;;;;;;37.53;19.10;;;;;;;3.16;89.75;100169.72;5047643;28;20111;-67
2022/12/09 09:27:35;;;;;;;41.10;19.85;;;;;;;3.19;89.84;100166.88;5049457;28;20056;-67
2022/12/09 09:30:03;;;;;;;39.63;18.38;;;;;;;3.20;89.48;100172.00;5044588;28;20080;-68
2022/12/09 09:32:31;;;;;;;41.60;19.98;;;;;;;3.20;89.42;100179.84;5061731;28;20044;-67
2022/12/09 09:34:58;;;;;;;39.33;19.85;;;;;;;3.18;89.03;100181.72;5052079;28;20127;-67
2022/12/09 09:37:25;;;;;;;39.85;19.67;;;;;;;3.20;89.52;100182.47;5031478;28;20060;-67
2022/12/09 09:39:52;;;;;;;39.05;19.17;;;;;;;3.25;89.56;100180.31;5039758;28;20048;-67
2022/12/09 09:42:25;;;;;;;45.20;20.42;;;;;;;3.39;89.04;100176.59;5059273;28;20127;-66
2022/12/09 09:44:53;;;;;;;43.47;20.23;;;;;;;3.39;88.00;100175.78;5032604;28;20089;-66
2022/12/09 09:47:43;;;;;;;43.67;20.20;;;;;;;3.41;88.03;100181.72;5035393;28;20440;-66
2022/12/09 09:50:30;;;;;;;48.28;20.52;;;;;;;3.56;87.15;100171.81;5036962;28;20102;-65
2022/12/09 09:53:01;;;;;;;40.05;20.02;;;;;;;3.63;87.29;100171.19;5037649;28;20132;-66
2022/12/09 09:55:35;;;;;;;35.00;18.88;;;;;;;3.69;85.84;100171.66;5035807;28;20033;-65
2022/12/09 09:58:34;;;;;;;40.20;20.42;;;;;;;3.73;85.71;100170.44;5046194;28;20040;-66
2022/12/09 10:01:07;;;;;;;39.92;19.67;;;;;;;3.75;85.57;100164.13;5029927;28;20055;-66
2022/12/09 10:03:58;;;;;;;46.80;19.83;;;;;;;3.72;85.33;100167.00;5015901;28;20046;-65
2022/12/09 10:07:05;;;;;;;40.05;19.23;;;;;;;3.62;85.45;100173.94;5045043;28;20049;-66
2022/12/09 10:09:45;;;;;;;35.72;18.73;;;;;;;3.61;85.78;100170.47;5038448;28;20056;-65
2022/12/09 10:15:10;;;;;;;42.67;19.45;;;;;;;3.54;84.74;100171.09;5112234;27;20642;-66
2022/12/09 10:18:06;;;;;;;45.58;20.48;;;;;;;3.81;84.80;100157.53;5095717;28;20698;-66
2022/12/09 10:20:32;;;;;;;38.08;20.33;;;;;;;3.79;84.96;100162.09;5096218;28;20035;-66
2022/12/09 10:23:03;;;;;;;40.00;21.35;;;;;;;3.64;84.65;100158.91;5093243;28;20520;-66
2022/12/09 10:25:33;;;;;;;41.03;20.60;;;;;;;3.83;84.82;100155.63;5081790;28;20052;-66
2022/12/09 10:28:12;;;;;;;41.60;19.95;;;;;;;3.88;84.60;100144.78;5089264;28;20052;-66
2022/12/09 10:30:39;;;;;;;38.58;19.42;;;;;;;3.81;84.64;100152.31;5080267;28;20059;-66
2022/12/09 10:33:12;;;;;;;41.15;19.27;;;;;;;3.87;83.65;100150.97;5103408;28;20036;-66
2022/12/09 10:35:39;;;;;;;38.38;18.85;;;;;;;3.93;83.79;100145.19;5086115;28;20052;-67
2022/12/09 10:38:11;;;;;;;37.70;19.60;;;;;;;3.74;83.20;100146.72;5084672;28;20506;-67
2022/12/09 10:40:49;;;;;;;;;;;;;;;3.71;83.25;100146.13;5087952;28;20101;-65
2022/12/09 10:43:42;;;;;;;37.08;18.83;;;;;;;3.84;83.54;100141.56;5090278;28;20407;-65
2022/12/09 10:48:57;;;;;;;53.45;22.58;;;;;;;3.84;84.17;100144.19;5115629;27;20409;-65
2022/12/09 10:51:29;;;;;;;44.20;20.38;;;;;;;3.41;83.61;100143.22;5115014;28;20056;-65
2022/12/09 10:53:58;;;;;;;;;;;;;;;3.24;84.61;100141.94;5097646;28;20071;-65
2022/12/09 10:59:18;;;;;;;43.95;20.02;;;;;;;3.17;86.34;100132.09;5109374;27;20358;-65
2022/12/09 11:01:55;;;;;;;47.17;19.83;;;;;;;3.32;85.31;100135.28;5075557;28;20506;-65
2022/12/09 11:04:26;;;;;;;45.58;20.05;;;;;;;3.49;84.64;100132.13;5108540;28;20067;-65
2022/12/09 11:06:57;;;;;;;44.05;20.17;;;;;;;3.34;84.84;100125.50;5103045;28;20104;-65
2022/12/09 11:09:31;;;;;;;40.47;20.02;;;;;;;3.10;85.00;100130.91;5088005;28;20048;-65
2022/12/09 11:11:59;;;;;;;49.20;20.85;;;;;;;3.27;86.11;100130.38;5099008;28;20292;-65
2022/12/09 11:14:39;;;;;;;49.67;20.65;;;;;;;3.39;85.99;100125.97;5106395;28;20048;-66
2022/12/09 11:17:15;;;;;;;49.17;21.05;;;;;;;3.51;85.51;100132.84;5073601;28;20040;-65
2022/12/09 11:19:45;;;;;;;44.92;20.85;;;;;;;3.60;85.38;100124.22;5108631;28;20126;-65
2022/12/09 11:24:53;;;;;;;42.78;20.20;;;;;;;3.33;84.29;100129.91;5102165;27;20407;-65
2022/12/09 11:27:30;;;;;;;42.13;20.75;;;;;;;3.46;84.91;100122.72;5098009;27;20068;-65
2022/12/09 11:30:17;;;;;;;43.42;18.98;;;;;;;3.48;83.55;100129.63;5129340;27;20193;-65
2022/12/09 11:32:59;;;;;;;39.10;18.85;;;;;;;3.39;82.15;100125.97;5119041;27;20035;-66
2022/12/09 11:35:32;;;;;;;39.97;18.40;;;;;;;3.38;82.24;100127.72;5121175;28;20047;-66
2022/12/09 11:38:13;;;;;;;40.17;19.02;;;;;;;3.30;82.78;100124.91;5121818;27;20527;-66
2022/12/09 11:40:40;;;;;;;40.55;19.13;;;;;;;2.98;83.99;100127.44;5105644;27;20413;-66